Thursday, November 23, 2017, 7:19 PM EST
Back to Local

KSBY, Salisbury-wicomico Cty Reg

Location: Salisbury, MD, United States Lat: 38.333
Local Time: 7:19 PM EST ( 0:19 GMT) Lon: -75.5
Time Zone: US/Eastern Elev: 52 ft

Show me the last for .
Show Decoded

2017-11-23 18:54 METAR KSBY 232354Z 00000KT 10SM CLR 00/M03 A3008 RMK AO2 SLP188 T00001028 10061
                 21011 51001 =
2017-11-23 17:54 METAR KSBY 232254Z 00000KT 10SM CLR 02/M04 A3008 RMK AO2 SLP187 T00221039 =
2017-11-23 16:54 METAR KSBY 232154Z 30005KT 10SM CLR 03/M03 A3008 RMK AO2 SLP188 T00331033 =
2017-11-23 15:54 METAR KSBY 232054Z 30004KT 10SM CLR 05/M03 A3008 RMK AO2 SLP187 T00501028 56013
                 =
2017-11-23 14:54 METAR KSBY 231954Z 00000KT 10SM CLR 05/M04 A3008 RMK AO2 SLP189 T00501044 =
2017-11-23 13:54 METAR KSBY 231854Z 25008KT 10SM CLR 05/M04 A3009 RMK AO2 SLP193 T00501039 =
2017-11-23 12:54 METAR KSBY 231754Z 29005KT 10SM CLR 04/M04 A3011 RMK AO2 SLP200 T00391039 10039
                 21006 56020 =
2017-11-23 11:54 METAR KSBY 231654Z 35006KT 10SM CLR 04/M04 A3012 RMK AO2 SLP202 T00391044 =
2017-11-23 10:54 METAR KSBY 231554Z 32003KT 10SM CLR 04/M04 A3015 RMK AO2 SLP214 T00391039 =
2017-11-23 09:54 METAR KSBY 231454Z 34009KT 10SM CLR 03/M04 A3017 RMK AO2 SLP220 T00281039 50005
                 =
2017-11-23 08:54 METAR KSBY 231354Z 34008KT 10SM CLR 02/M04 A3018 RMK AO2 SLP224 T00171044 =
2017-11-23 07:54 METAR KSBY 231254Z 30003KT 10SM CLR 01/M04 A3019 RMK AO2 SLP225 T00061039 =
2017-11-23 06:54 METAR KSBY 231154Z 34004KT 10SM CLR M01/M04 A3016 RMK AO2 SLP215 70013 T10061039
                 10022 21017 53002 =
2017-11-23 05:54 METAR KSBY 231054Z AUTO 33003KT 10SM CLR M01/M04 A3016 RMK AO2 SLP214 T10111039
                 =
2017-11-23 04:54 METAR KSBY 230954Z AUTO 00000KT 10SM CLR 00/M04 A3015 RMK AO2 SLP213 T00001039 =
2017-11-23 03:54 METAR KSBY 230854Z AUTO 00000KT 10SM CLR 00/M03 A3015 RMK AO2 SLP213 T00001033
                 51002 =
2017-11-23 02:54 METAR KSBY 230754Z AUTO 00000KT 10SM CLR 01/M03 A3015 RMK AO2 SLP212 T00061033 =
2017-11-23 01:54 METAR KSBY 230654Z AUTO 00000KT 10SM CLR 02/M03 A3015 RMK AO2 SLP211 T00171033 =
2017-11-23 00:54 METAR KSBY 230554Z AUTO 33004KT 10SM CLR 02/M03 A3015 RMK AO2 SLP211 T00171033
                 10067 20017 51003 =
2017-11-22 23:54 METAR KSBY 230454Z AUTO 34009KT 10SM CLR 03/M03 A3014 RMK AO2 SLP208 T00331033
                 401560033 =
2017-11-22 22:54 METAR KSBY 230354Z AUTO 34008KT 10SM CLR 04/M03 A3015 RMK AO2 SLP211 T00391028 =
2017-11-22 21:54 METAR KSBY 230254Z 33011KT 10SM CLR 05/M02 A3014 RMK AO2 SLP208 T00501017 53024
                 =
2017-11-22 20:54 METAR KSBY 230154Z 31005KT 10SM CLR 05/M01 A3011 RMK AO2 SLP198 T00501011 =
2017-11-22 19:54 METAR KSBY 230054Z 32007KT 10SM CLR 06/M01 A3009 RMK AO2 SLP190 T00561006 =

Support USWX by starting your Amazon purchase here.